Delaware — WDJ3161 — position and weather

sailwx.info

Track history (hours):
 
Tides and Currents Weather Stations Pressure Air Temp Water Temp Dewpoint Dewpoint Depression Visibility Wind Speed Wind Dir Waves Ship Positions

Delaware

Owner: Vane Line Bunkering, Inc., Philadelphia, PA. More information available from US FCC via Universal Licensing System and Coast Guard Vessel Documentation Center.

Last reported at 2018-Jun-23 19:30 UTC. Time now 2018-Jun-23 19:34 UTC.
Position N 40°40' W 074°05'.

Length 32 m.

Type: Tug. MMSI: 367303000.

Date/timePositionNaut miles runAvg speedWind from/ knotsBaromVisibWave heightAir tempDewpointWater temp
2018-Jun-23 19:30N 40°40' W 074°05'0 0.0
2018-Jun-23 19:00N 40°40' W 074°05'0 0.0
2018-Jun-23 18:30N 40°40' W 074°05'0 0.0
2018-Jun-23 18:00N 40°40' W 074°05'0 0.0
2018-Jun-23 17:29N 40°40' W 074°05'0 0.3
2018-Jun-23 17:00N 40°40' W 074°05'0 0.8
2018-Jun-23 16:30N 40°40' W 074°05'0 0.0
2018-Jun-23 16:00N 40°40' W 074°05'0 0.0
2018-Jun-23 15:30N 40°40' W 074°05'0 0.0
2018-Jun-23 15:00N 40°40' W 074°05'0 0.0
2018-Jun-23 14:30N 40°40' W 074°05'0 0.0
2018-Jun-23 14:00N 40°40' W 074°05'0 0.0
2018-Jun-23 13:30N 40°40' W 074°05'0 0.0
2018-Jun-23 13:00N 40°40' W 074°05'0 1.0
2018-Jun-23 12:30N 40°40' W 074°05'3 7.0
2018-Jun-23 12:01N 40°41' W 074°00'0 0.6
2018-Jun-23 11:31N 40°42' W 074°00'1 1.4
2018-Jun-23 11:00N 40°41' W 074°01'3 6.9
2018-Jun-23 10:31N 40°40' W 074°05'0 0.1
2018-Jun-23 09:59N 40°40' W 074°05'0 0.0
2018-Jun-23 09:30N 40°40' W 074°05'0 0.0
2018-Jun-23 09:00N 40°40' W 074°05'0 0.0
2018-Jun-23 08:30N 40°40' W 074°05'0 0.0
2018-Jun-23 08:01N 40°40' W 074°05'0 0.6
2018-Jun-23 07:30N 40°40' W 074°05'0 0.0
2018-Jun-23 07:00N 40°40' W 074°05'0 0.1
2018-Jun-23 06:30N 40°40' W 074°05'0 1.0
2018-Jun-23 06:00N 40°40' W 074°04'1 2.2
2018-Jun-23 05:30N 40°39' W 074°05'1 2.3
2018-Jun-23 05:00N 40°39' W 074°07'0 0.3
2018-Jun-23 04:30N 40°39' W 074°06'1 2.3
2018-Jun-23 04:00N 40°39' W 074°05'4 7.1
2018-Jun-23 03:30N 40°40' W 074°01'0 0.1
2018-Jun-23 03:00N 40°40' W 074°01'0 0.1
2018-Jun-23 02:30N 40°40' W 074°00'0 0.0
2018-Jun-23 02:00N 40°40' W 074°00'0 0.0
2018-Jun-23 01:30N 40°40' W 074°00'0 0.0
2018-Jun-23 01:00N 40°40' W 074°00'0 0.0
2018-Jun-23 00:30N 40°40' W 074°00'0 0.0
2018-Jun-22 23:59N 40°40' W 074°00'0 0.0
2018-Jun-22 23:30N 40°40' W 074°00'0 0.0
2018-Jun-22 23:00N 40°40' W 074°00'0 0.0
2018-Jun-22 22:30N 40°40' W 074°00'0 0.0
2018-Jun-22 22:00N 40°40' W 074°00'2 3.1
2018-Jun-22 21:30N 40°39' W 074°02'4 8.9
2018-Jun-22 21:00N 40°39' W 074°08'2 4.8
2018-Jun-22 20:30N 40°41' W 074°09'0 0.0
2018-Jun-22 20:00N 40°41' W 074°09'1 2.5
2018-Jun-22 19:30N 40°40' W 074°09'3 5.5
2018-Jun-22 19:01N 40°39' W 074°05'0 0.2
2018-Jun-22 18:30N 40°39' W 074°05'1 1.6
2018-Jun-22 18:00N 40°39' W 074°06'0 0.0
2018-Jun-22 17:30N 40°39' W 074°06'0 0.0
2018-Jun-22 17:00N 40°39' W 074°06'0 0.0
2018-Jun-22 16:30N 40°39' W 074°06'0 0.0
2018-Jun-22 16:00N 40°39' W 074°06'1 1.1
2018-Jun-22 15:31N 40°39' W 074°06'0 0.1
2018-Jun-22 15:00N 40°39' W 074°06'3 6.0
2018-Jun-22 14:30N 40°40' W 074°03'0 0.0
2018-Jun-22 14:00N 40°40' W 074°03'2 3.8
2018-Jun-22 13:30N 40°40' W 074°00'0 0.0
2018-Jun-22 13:00N 40°40' W 074°00'0 0.0
2018-Jun-22 12:30N 40°40' W 074°00'0 0.0
2018-Jun-22 12:00N 40°40' W 074°00'0 0.0
2018-Jun-22 11:30N 40°40' W 074°00'0 0.0
2018-Jun-22 11:00N 40°40' W 074°00'0 0.0
2018-Jun-22 10:30N 40°40' W 074°00'0 0.0
2018-Jun-22 10:00N 40°40' W 074°00'0 0.0
2018-Jun-22 09:30N 40°40' W 074°00'0 0.0
2018-Jun-22 09:00N 40°40' W 074°00'0 0.0
2018-Jun-22 08:30N 40°40' W 074°00'0 0.0
2018-Jun-22 08:00N 40°40' W 074°00'0 0.0
2018-Jun-22 07:30N 40°40' W 074°00'0 0.0
2018-Jun-22 07:00N 40°40' W 074°00'0 0.0
2018-Jun-22 06:30N 40°40' W 074°00'0 0.5
2018-Jun-22 06:00N 40°40' W 074°00'0 0.0
2018-Jun-22 05:30N 40°40' W 074°00'0 0.0
2018-Jun-22 05:00N 40°40' W 074°00'3 5.2
2018-Jun-22 04:30N 40°39' W 074°03'1 2.7
2018-Jun-22 04:00N 40°39' W 074°05'1 1.8
2018-Jun-22 03:30N 40°40' W 074°05'0 0.7
2018-Jun-22 02:58N 40°40' W 074°05'1 1.6
2018-Jun-22 02:30N 40°40' W 074°04'3 6.1
2018-Jun-22 02:01N 40°40' W 074°00'1 1.4
2018-Jun-22 01:30N 40°40' W 074°01'1 1.9
2018-Jun-22 01:00N 40°40' W 074°02'0 0.1
2018-Jun-22 00:30N 40°40' W 074°02'0 0.0
2018-Jun-22 00:00N 40°40' W 074°02'0 0.0
2018-Jun-21 23:30N 40°40' W 074°02'0 0.1
2018-Jun-21 23:00N 40°40' W 074°02'0 0.3
2018-Jun-21 22:30N 40°40' W 074°02'0 0.1
2018-Jun-21 22:00N 40°40' W 074°02'0 0.0
2018-Jun-21 21:30N 40°40' W 074°02'0 0.1
2018-Jun-21 21:00N 40°40' W 074°02'0 0.1
2018-Jun-21 20:30N 40°40' W 074°02'0 0.0
2018-Jun-21 20:00N 40°40' W 074°02'0 0.0
2018-Jun-21 19:30N 40°40' W 074°02'0 0.0
2018-Jun-21 19:00N 40°40' W 074°02'0 0.1
2018-Jun-21 18:30N 40°40' W 074°02'0 0.2
2018-Jun-21 18:00N 40°40' W 074°02'0 0.0
2018-Jun-21 17:30N 40°40' W 074°02'0 0.0
2018-Jun-21 17:00N 40°40' W 074°02'0 0.0
2018-Jun-21 16:30N 40°40' W 074°02'0 0.0
2018-Jun-21 16:00N 40°40' W 074°02'0 0.0
2018-Jun-21 15:30N 40°40' W 074°02'0 0.0
2018-Jun-21 15:00N 40°40' W 074°02'0 0.0
2018-Jun-21 14:30N 40°40' W 074°02'0 0.0
2018-Jun-21 14:00N 40°40' W 074°02'0 0.0
2018-Jun-21 13:30N 40°40' W 074°02'0 0.0
2018-Jun-21 13:00N 40°40' W 074°02'0 0.0
2018-Jun-21 12:30N 40°40' W 074°02'0 0.0
2018-Jun-21 12:00N 40°40' W 074°02'0 0.0
2018-Jun-21 11:30N 40°40' W 074°02'0 0.0
2018-Jun-21 11:00N 40°40' W 074°02'0 0.1
2018-Jun-21 10:31N 40°40' W 074°02'3 7.0
2018-Jun-21 10:00N 40°42' W 073°59'4 0.1
2018-Jun-19 19:31N 40°46' W 073°57'0 8.7
2018-Jun-19 19:30N 40°46' W 073°57'4 7.6
2018-Jun-19 19:01N 40°42' W 073°60'4 8.4
2018-Jun-19 18:30N 40°39' W 074°03'4 7.7
2018-Jun-19 18:00N 40°39' W 074°08'4 2.9
2018-Jun-19 16:44N 40°36' W 074°12'0 0.1
2018-Jun-19 16:30N 40°36' W 074°12'0 0.0
2018-Jun-19 15:58N 40°36' W 074°12'0 0.0
2018-Jun-19 15:28N 40°36' W 074°12'0 0.0
2018-Jun-19 14:53N 40°36' W 074°12'0 0.0
2018-Jun-19 14:24N 40°36' W 074°12'0 0.0
2018-Jun-19 13:53N 40°36' W 074°12'0 0.0
2018-Jun-19 13:27N 40°36' W 074°12'0 0.0
2018-Jun-19 12:56N 40°36' W 074°12'0 0.0
2018-Jun-19 12:17N 40°36' W 074°12'0 0.0
2018-Jun-19 11:49N 40°36' W 074°12'0 0.0
2018-Jun-19 11:29N 40°36' W 074°12'0 0.0
2018-Jun-19 11:00N 40°36' W 074°12'0 0.0
2018-Jun-19 10:08N 40°36' W 074°12'0 0.0
2018-Jun-19 09:42N 40°36' W 074°12'0 0.0
2018-Jun-19 09:17N 40°36' W 074°12'0 0.0
2018-Jun-19 08:59N 40°36' W 074°12'2 3.0
2018-Jun-19 08:21N 40°38' W 074°12'3 8.6
2018-Jun-19 08:00N 40°39' W 074°08'4 8.6
2018-Jun-19 07:31N 40°39' W 074°02'2 4.2
2018-Jun-19 07:00N 40°40' W 074°00'0 0.6
2018-Jun-19 06:30N 40°40' W 074°00'0 0.1
2018-Jun-19 06:00N 40°40' W 074°00'1 1.8
2018-Jun-19 05:31N 40°41' W 074°01'1 2.2
2018-Jun-19 05:01N 40°41' W 074°00'2 4.3
2018-Jun-19 04:30N 40°41' W 074°03'3 5.2
2018-Jun-19 04:00N 40°39' W 074°06'4 8.6
2018-Jun-19 03:30N 40°39' W 074°11'0 0.0
2018-Jun-19 00:59N 40°39' W 074°11'3 6.4
2018-Jun-19 00:30N 40°39' W 074°07'3 6.6
2018-Jun-19 00:00N 40°40' W 074°03'510.5
2018-Jun-18 23:30N 40°45' W 074°01'3 5.3
2018-Jun-18 22:58N 40°47' W 073°60'0 0.0
2018-Jun-18 22:30N 40°47' W 073°60'0 0.2
2018-Jun-18 22:00N 40°47' W 073°59'0 0.2
2018-Jun-18 21:30N 40°47' W 073°59'0 0.1
2018-Jun-18 20:59N 40°47' W 073°59'0 0.1
2018-Jun-18 20:30N 40°47' W 073°59'0 0.1
2018-Jun-18 20:00N 40°47' W 073°59'0 0.0
2018-Jun-18 19:04N 40°47' W 073°59'0 0.0
2018-Jun-18 16:57N 40°47' W 073°59'0 0.0
2018-Jun-18 16:16N 40°47' W 073°59'0 0.0
2018-Jun-18 15:58N 40°47' W 073°59'0 0.0
2018-Jun-18 15:30N 40°47' W 073°59'0 0.0
2018-Jun-18 15:00N 40°47' W 073°59'0 0.3
2018-Jun-18 14:30N 40°47' W 073°60'0 0.1
2018-Jun-18 13:59N 40°47' W 073°60'0 0.0
2018-Jun-18 13:27N 40°47' W 073°60'0 0.0
2018-Jun-18 13:00N 40°47' W 073°60'0 0.0
2018-Jun-18 12:30N 40°47' W 073°60'0 0.0
2018-Jun-18 12:00N 40°47' W 073°60'0 0.0
2018-Jun-18 11:30N 40°47' W 073°60'0 0.0
2018-Jun-18 11:00N 40°47' W 073°60'0 0.0
2018-Jun-18 10:26N 40°47' W 073°60'0 0.0
2018-Jun-18 10:00N 40°47' W 073°60'0 0.0
2018-Jun-18 09:30N 40°47' W 073°60'0 0.0
2018-Jun-18 08:59N 40°47' W 073°59'0 0.1
2018-Jun-18 08:29N 40°47' W 073°60'0 0.4
2018-Jun-18 08:00N 40°47' W 073°59'0 0.1
2018-Jun-18 07:29N 40°47' W 073°59'0 0.0
2018-Jun-18 07:00N 40°47' W 073°59'0 0.0
2018-Jun-18 06:18N 40°47' W 073°59'0 0.0
2018-Jun-18 06:00N 40°47' W 073°59'0 0.0
2018-Jun-18 05:28N 40°47' W 073°59'0 0.0
2018-Jun-18 04:12N 40°47' W 073°59'0 0.0
2018-Jun-18 03:46N 40°47' W 073°59'0 0.0
2018-Jun-18 03:30N 40°47' W 073°59'0 0.0
2018-Jun-18 02:45N 40°47' W 073°59'0 0.0
2018-Jun-18 02:30N 40°47' W 073°59'0 0.0
2018-Jun-18 01:55N 40°47' W 073°59'0 0.2
2018-Jun-18 00:41N 40°47' W 073°60'0 0.0
2018-Jun-18 00:27N 40°47' W 073°60'0 0.0
2018-Jun-17 23:58N 40°47' W 073°60'0 0.0
2018-Jun-17 23:25N 40°47' W 073°60'0 0.0
2018-Jun-17 22:57N 40°47' W 073°60'0 0.0
2018-Jun-17 22:21N 40°47' W 073°60'0 0.0
2018-Jun-17 21:59N 40°47' W 073°60'0 0.0
2018-Jun-17 21:23N 40°47' W 073°60'0 0.0
2018-Jun-17 20:56N 40°47' W 073°60'0 0.0
2018-Jun-17 20:26N 40°47' W 073°59'0 0.2
2018-Jun-17 19:44N 40°47' W 073°59'0 0.1
2018-Jun-17 19:30N 40°47' W 073°59'0 0.0
2018-Jun-17 19:00N 40°47' W 073°59'0 0.0
2018-Jun-17 18:30N 40°47' W 073°59'0 0.0
2018-Jun-17 17:59N 40°47' W 073°59'0 0.0
2018-Jun-17 15:19N 40°47' W 073°59'0 0.1
2018-Jun-17 15:00N 40°47' W 073°59'0 0.1
2018-Jun-17 14:30N 40°47' W 073°59'0 0.2
2018-Jun-17 14:00N 40°47' W 073°60'0 0.1
2018-Jun-17 13:30N 40°47' W 073°60'0 0.0
2018-Jun-17 12:21N 40°47' W 073°60'0 0.0
2018-Jun-17 12:00N 40°47' W 073°60'0 0.0
2018-Jun-17 11:28N 40°47' W 073°60'0 0.0
2018-Jun-17 11:00N 40°47' W 073°60'0 0.0
2018-Jun-17 10:30N 40°47' W 073°60'0 0.0
2018-Jun-17 10:00N 40°47' W 073°60'0 0.0
2018-Jun-17 09:30N 40°47' W 073°60'0 0.0
2018-Jun-17 08:58N 40°47' W 073°60'0 0.0
2018-Jun-17 08:30N 40°47' W 073°60'0 0.0
2018-Jun-17 07:48N 40°47' W 073°60'0 0.2
2018-Jun-17 07:30N 40°47' W 073°60'0 0.2
2018-Jun-17 06:47N 40°47' W 073°59'0 0.1
2018-Jun-17 06:30N 40°47' W 073°59'0 0.0
2018-Jun-17 06:00N 40°47' W 073°59'0 0.0
2018-Jun-17 05:26N 40°47' W 073°59'0 0.0
2018-Jun-17 04:17N 40°47' W 073°59'0 0.0
2018-Jun-17 04:00N 40°47' W 073°59'0 0.0
2018-Jun-17 03:30N 40°47' W 073°59'0 0.0
2018-Jun-17 02:38N 40°47' W 073°59'0 0.0
2018-Jun-17 02:29N 40°47' W 073°59'0 0.0
2018-Jun-17 01:57N 40°47' W 073°59'0 0.0
2018-Jun-17 01:30N 40°47' W 073°59'0 0.1
2018-Jun-17 01:00N 40°47' W 073°59'0 0.3
2018-Jun-17 00:30N 40°47' W 073°60'0 0.0
2018-Jun-16 23:47N 40°47' W 073°60'0 0.0
2018-Jun-16 23:30N 40°47' W 073°60'0 0.0
2018-Jun-16 22:54N 40°47' W 073°60'0 0.0
2018-Jun-16 22:30N 40°47' W 073°60'0 0.0
2018-Jun-16 22:00N 40°47' W 073°60'0 0.0
2018-Jun-16 21:29N 40°47' W 073°60'0 0.0
2018-Jun-16 20:59N 40°47' W 073°60'0 0.0
2018-Jun-16 20:30N 40°47' W 073°60'0 0.0
2018-Jun-16 20:00N 40°47' W 073°60'0 0.1
2018-Jun-16 19:23N 40°47' W 073°59'0 0.0
2018-Jun-16 18:55N 40°47' W 073°59'0 0.2
2018-Jun-16 18:26N 40°47' W 073°59'0 0.2
2018-Jun-16 17:44N 40°47' W 073°59'0 0.1
2018-Jun-16 17:27N 40°47' W 073°59'0 0.0
2018-Jun-16 16:58N 40°47' W 073°59'0 0.0
2018-Jun-16 16:25N 40°47' W 073°59'0 0.0
2018-Jun-16 15:56N 40°47' W 073°59'2 4.9
2018-Jun-16 15:30N 40°46' W 074°01'3 6.7
2018-Jun-16 15:00N 40°42' W 073°60'3 6.2
2018-Jun-16 14:30N 40°45' W 073°58'55 6.9
2018-Jun-16 06:34N 41°05' W 072°50'1 8.2
2018-Jun-16 06:30N 41°06' W 072°49'4 8.5
2018-Jun-16 05:58N 41°07' W 072°43'4 8.5
2018-Jun-16 05:30N 41°07' W 072°38'5 9.2
2018-Jun-16 05:00N 41°08' W 072°32'510.0
2018-Jun-16 04:30N 41°09' W 072°26'610.8
2018-Jun-16 03:59N 41°11' W 072°19'610.7
2018-Jun-16 03:28N 41°13' W 072°12'93 7.2
2018-Jun-15 14:31N 42°13' W 070°36'0 8.6
2018-Jun-15 14:28N 42°13' W 070°36'5 8.3
2018-Jun-15 13:50N 42°17' W 070°41'3 7.8
2018-Jun-15 13:30N 42°18' W 070°45'4 8.0
2018-Jun-15 13:00N 42°20' W 070°49'4 7.1
2018-Jun-15 12:30N 42°19' W 070°54'1 2.6
2018-Jun-15 12:00N 42°18' W 070°55'3 5.8
2018-Jun-15 11:30N 42°15' W 070°57'1 2.3
2018-Jun-15 11:00N 42°15' W 070°58'0 0.0
2018-Jun-15 10:30N 42°15' W 070°58'0 0.0
2018-Jun-15 10:00N 42°15' W 070°58'0 0.0
2018-Jun-15 09:30N 42°15' W 070°58'0 0.0
2018-Jun-15 09:00N 42°15' W 070°58'0 0.0
2018-Jun-15 08:30N 42°15' W 070°58'0 0.0
2018-Jun-15 08:00N 42°15' W 070°58'0 0.0
2018-Jun-15 07:30N 42°15' W 070°58'0 0.0
2018-Jun-15 07:00N 42°15' W 070°58'0 0.0
2018-Jun-15 06:30N 42°15' W 070°58'0 0.0
2018-Jun-15 06:00N 42°15' W 070°58'0 0.0
2018-Jun-15 05:30N 42°15' W 070°58'0 0.0
2018-Jun-15 05:00N 42°15' W 070°58'0 0.0
2018-Jun-15 04:30N 42°15' W 070°58'0 0.0
2018-Jun-15 04:00N 42°15' W 070°58'0 0.0
2018-Jun-15 03:30N 42°15' W 070°58'0 0.0
2018-Jun-15 03:00N 42°15' W 070°58'0 0.0
2018-Jun-15 02:30N 42°15' W 070°58'0 0.0
2018-Jun-15 02:00N 42°15' W 070°58'0 0.0
2018-Jun-15 01:30N 42°15' W 070°58'0 0.0
2018-Jun-15 01:00N 42°15' W 070°58'0 0.0
2018-Jun-15 00:30N 42°15' W 070°58'0 0.0
2018-Jun-15 00:00N 42°15' W 070°58'0 0.0
2018-Jun-14 23:30N 42°15' W 070°58'0 0.0
2018-Jun-14 23:00N 42°15' W 070°58'0 0.0
2018-Jun-14 22:31N 42°15' W 070°58'0 0.0
2018-Jun-14 22:00N 42°15' W 070°58'0 0.0
2018-Jun-14 21:30N 42°15' W 070°58'0 0.0
2018-Jun-14 21:00N 42°15' W 070°58'0 0.0
2018-Jun-14 20:31N 42°15' W 070°58'0 0.1
2018-Jun-14 19:59N 42°15' W 070°58'0 0.8
2018-Jun-14 19:30N 42°15' W 070°58'2 4.9
2018-Jun-14 19:00N 42°17' W 070°56'3 5.8
2018-Jun-14 18:31N 42°19' W 070°54'4 7.8
2018-Jun-14 18:00N 42°19' W 070°48'4 8.2
2018-Jun-14 17:30N 42°17' W 070°43'4 8.1
2018-Jun-14 17:00N 42°14' W 070°40'4 8.0
2018-Jun-14 16:30N 42°11' W 070°37'89 5.8
2018-Jun-14 01:10N 41°14' W 072°08'1 5.5
2018-Jun-14 01:00N 41°13' W 072°09'9 6.2
2018-Jun-13 23:36N 41°11' W 072°20'1 6.9
2018-Jun-13 23:29N 41°10' W 072°21'3 7.2
2018-Jun-13 23:00N 41°10' W 072°26'4 7.1
2018-Jun-13 22:30N 41°10' W 072°31'4 7.7
2018-Jun-13 22:00N 41°10' W 072°36'3 5.5
2018-Jun-13 21:30N 41°10' W 072°39'  
Track history (hours):
 
Tides and Currents Weather Stations Pressure Air Temp Water Temp Dewpoint Dewpoint Depression Visibility Wind Speed Wind Dir Waves Ship Positions

Delaware

Owner: Vane Line Bunkering, Inc., Philadelphia, PA. More information available from US FCC via Universal Licensing System and Coast Guard Vessel Documentation Center.

Last reported at 2018-Jun-23 19:30 UTC. Time now 2018-Jun-23 19:34 UTC.
Position N 40°40' W 074°05'.

Length 32 m.

Type: Tug. MMSI: 367303000.

Date/timePositionNaut miles runAvg speedWind from/ knotsBaromVisibWave heightAir tempDewpointWater temp
2018-Jun-23 19:30N 40°40' W 074°05'0 0.0
2018-Jun-23 19:00N 40°40' W 074°05'0 0.0
2018-Jun-23 18:30N 40°40' W 074°05'0 0.0
2018-Jun-23 18:00N 40°40' W 074°05'0 0.0
2018-Jun-23 17:29N 40°40' W 074°05'0 0.3
2018-Jun-23 17:00N 40°40' W 074°05'0 0.8
2018-Jun-23 16:30N 40°40' W 074°05'0 0.0
2018-Jun-23 16:00N 40°40' W 074°05'0 0.0
2018-Jun-23 15:30N 40°40' W 074°05'0 0.0
2018-Jun-23 15:00N 40°40' W 074°05'0 0.0
2018-Jun-23 14:30N 40°40' W 074°05'0 0.0
2018-Jun-23 14:00N 40°40' W 074°05'0 0.0
2018-Jun-23 13:30N 40°40' W 074°05'0 0.0
2018-Jun-23 13:00N 40°40' W 074°05'0 1.0
2018-Jun-23 12:30N 40°40' W 074°05'3 7.0
2018-Jun-23 12:01N 40°41' W 074°00'0 0.6
2018-Jun-23 11:31N 40°42' W 074°00'1 1.4
2018-Jun-23 11:00N 40°41' W 074°01'3 6.9
2018-Jun-23 10:31N 40°40' W 074°05'0 0.1
2018-Jun-23 09:59N 40°40' W 074°05'0 0.0
2018-Jun-23 09:30N 40°40' W 074°05'0 0.0
2018-Jun-23 09:00N 40°40' W 074°05'0 0.0
2018-Jun-23 08:30N 40°40' W 074°05'0 0.0
2018-Jun-23 08:01N 40°40' W 074°05'0 0.6
2018-Jun-23 07:30N 40°40' W 074°05'0 0.0
2018-Jun-23 07:00N 40°40' W 074°05'0 0.1
2018-Jun-23 06:30N 40°40' W 074°05'0 1.0
2018-Jun-23 06:00N 40°40' W 074°04'1 2.2
2018-Jun-23 05:30N 40°39' W 074°05'1 2.3
2018-Jun-23 05:00N 40°39' W 074°07'0 0.3
2018-Jun-23 04:30N 40°39' W 074°06'1 2.3
2018-Jun-23 04:00N 40°39' W 074°05'4 7.1
2018-Jun-23 03:30N 40°40' W 074°01'0 0.1
2018-Jun-23 03:00N 40°40' W 074°01'0 0.1
2018-Jun-23 02:30N 40°40' W 074°00'0 0.0
2018-Jun-23 02:00N 40°40' W 074°00'0 0.0
2018-Jun-23 01:30N 40°40' W 074°00'0 0.0
2018-Jun-23 01:00N 40°40' W 074°00'0 0.0
2018-Jun-23 00:30N 40°40' W 074°00'0 0.0
2018-Jun-22 23:59N 40°40' W 074°00'0 0.0
2018-Jun-22 23:30N 40°40' W 074°00'0 0.0
2018-Jun-22 23:00N 40°40' W 074°00'0 0.0
2018-Jun-22 22:30N 40°40' W 074°00'0 0.0
2018-Jun-22 22:00N 40°40' W 074°00'2 3.1
2018-Jun-22 21:30N 40°39' W 074°02'4 8.9
2018-Jun-22 21:00N 40°39' W 074°08'2 4.8
2018-Jun-22 20:30N 40°41' W 074°09'0 0.0
2018-Jun-22 20:00N 40°41' W 074°09'1 2.5
2018-Jun-22 19:30N 40°40' W 074°09'3 5.5
2018-Jun-22 19:01N 40°39' W 074°05'0 0.2
2018-Jun-22 18:30N 40°39' W 074°05'1 1.6
2018-Jun-22 18:00N 40°39' W 074°06'0 0.0
2018-Jun-22 17:30N 40°39' W 074°06'0 0.0
2018-Jun-22 17:00N 40°39' W 074°06'0 0.0
2018-Jun-22 16:30N 40°39' W 074°06'0 0.0
2018-Jun-22 16:00N 40°39' W 074°06'1 1.1
2018-Jun-22 15:31N 40°39' W 074°06'0 0.1
2018-Jun-22 15:00N 40°39' W 074°06'3 6.0
2018-Jun-22 14:30N 40°40' W 074°03'0 0.0
2018-Jun-22 14:00N 40°40' W 074°03'2 3.8
2018-Jun-22 13:30N 40°40' W 074°00'0 0.0
2018-Jun-22 13:00N 40°40' W 074°00'0 0.0
2018-Jun-22 12:30N 40°40' W 074°00'0 0.0
2018-Jun-22 12:00N 40°40' W 074°00'0 0.0
2018-Jun-22 11:30N 40°40' W 074°00'0 0.0
2018-Jun-22 11:00N 40°40' W 074°00'0 0.0
2018-Jun-22 10:30N 40°40' W 074°00'0 0.0
2018-Jun-22 10:00N 40°40' W 074°00'0 0.0
2018-Jun-22 09:30N 40°40' W 074°00'0 0.0
2018-Jun-22 09:00N 40°40' W 074°00'0 0.0
2018-Jun-22 08:30N 40°40' W 074°00'0 0.0
2018-Jun-22 08:00N 40°40' W 074°00'0 0.0
2018-Jun-22 07:30N 40°40' W 074°00'0 0.0
2018-Jun-22 07:00N 40°40' W 074°00'0 0.0
2018-Jun-22 06:30N 40°40' W 074°00'0 0.5
2018-Jun-22 06:00N 40°40' W 074°00'0 0.0
2018-Jun-22 05:30N 40°40' W 074°00'0 0.0
2018-Jun-22 05:00N 40°40' W 074°00'3 5.2
2018-Jun-22 04:30N 40°39' W 074°03'1 2.7
2018-Jun-22 04:00N 40°39' W 074°05'1 1.8
2018-Jun-22 03:30N 40°40' W 074°05'0 0.7
2018-Jun-22 02:58N 40°40' W 074°05'1 1.6
2018-Jun-22 02:30N 40°40' W 074°04'3 6.1
2018-Jun-22 02:01N 40°40' W 074°00'1 1.4
2018-Jun-22 01:30N 40°40' W 074°01'1 1.9
2018-Jun-22 01:00N 40°40' W 074°02'0 0.1
2018-Jun-22 00:30N 40°40' W 074°02'0 0.0
2018-Jun-22 00:00N 40°40' W 074°02'0 0.0
2018-Jun-21 23:30N 40°40' W 074°02'0 0.1
2018-Jun-21 23:00N 40°40' W 074°02'0 0.3
2018-Jun-21 22:30N 40°40' W 074°02'0 0.1
2018-Jun-21 22:00N 40°40' W 074°02'0 0.0
2018-Jun-21 21:30N 40°40' W 074°02'0 0.1
2018-Jun-21 21:00N 40°40' W 074°02'0 0.1
2018-Jun-21 20:30N 40°40' W 074°02'0 0.0
2018-Jun-21 20:00N 40°40' W 074°02'0 0.0
2018-Jun-21 19:30N 40°40' W 074°02'0 0.0
2018-Jun-21 19:00N 40°40' W 074°02'0 0.1
2018-Jun-21 18:30N 40°40' W 074°02'0 0.2
2018-Jun-21 18:00N 40°40' W 074°02'0 0.0
2018-Jun-21 17:30N 40°40' W 074°02'0 0.0
2018-Jun-21 17:00N 40°40' W 074°02'0 0.0
2018-Jun-21 16:30N 40°40' W 074°02'0 0.0
2018-Jun-21 16:00N 40°40' W 074°02'0 0.0
2018-Jun-21 15:30N 40°40' W 074°02'0 0.0
2018-Jun-21 15:00N 40°40' W 074°02'0 0.0
2018-Jun-21 14:30N 40°40' W 074°02'0 0.0
2018-Jun-21 14:00N 40°40' W 074°02'0 0.0
2018-Jun-21 13:30N 40°40' W 074°02'0 0.0
2018-Jun-21 13:00N 40°40' W 074°02'0 0.0
2018-Jun-21 12:30N 40°40' W 074°02'0 0.0
2018-Jun-21 12:00N 40°40' W 074°02'0 0.0
2018-Jun-21 11:30N 40°40' W 074°02'0 0.0
2018-Jun-21 11:00N 40°40' W 074°02'0 0.1
2018-Jun-21 10:31N 40°40' W 074°02'3 7.0
2018-Jun-21 10:00N 40°42' W 073°59'4 0.1
2018-Jun-19 19:31N 40°46' W 073°57'0 8.7
2018-Jun-19 19:30N 40°46' W 073°57'4 7.6
2018-Jun-19 19:01N 40°42' W 073°60'4 8.4
2018-Jun-19 18:30N 40°39' W 074°03'4 7.7
2018-Jun-19 18:00N 40°39' W 074°08'4 2.9
2018-Jun-19 16:44N 40°36' W 074°12'0 0.1
2018-Jun-19 16:30N 40°36' W 074°12'0 0.0
2018-Jun-19 15:58N 40°36' W 074°12'0 0.0
2018-Jun-19 15:28N 40°36' W 074°12'0 0.0
2018-Jun-19 14:53N 40°36' W 074°12'0 0.0
2018-Jun-19 14:24N 40°36' W 074°12'0 0.0
2018-Jun-19 13:53N 40°36' W 074°12'0 0.0
2018-Jun-19 13:27N 40°36' W 074°12'0 0.0
2018-Jun-19 12:56N 40°36' W 074°12'0 0.0
2018-Jun-19 12:17N 40°36' W 074°12'0 0.0
2018-Jun-19 11:49N 40°36' W 074°12'0 0.0
2018-Jun-19 11:29N 40°36' W 074°12'0 0.0
2018-Jun-19 11:00N 40°36' W 074°12'0 0.0
2018-Jun-19 10:08N 40°36' W 074°12'0 0.0
2018-Jun-19 09:42N 40°36' W 074°12'0 0.0
2018-Jun-19 09:17N 40°36' W 074°12'0 0.0
2018-Jun-19 08:59N 40°36' W 074°12'2 3.0
2018-Jun-19 08:21N 40°38' W 074°12'3 8.6
2018-Jun-19 08:00N 40°39' W 074°08'4 8.6
2018-Jun-19 07:31N 40°39' W 074°02'2 4.2
2018-Jun-19 07:00N 40°40' W 074°00'0 0.6
2018-Jun-19 06:30N 40°40' W 074°00'0 0.1
2018-Jun-19 06:00N 40°40' W 074°00'1 1.8
2018-Jun-19 05:31N 40°41' W 074°01'1 2.2
2018-Jun-19 05:01N 40°41' W 074°00'2 4.3
2018-Jun-19 04:30N 40°41' W 074°03'3 5.2
2018-Jun-19 04:00N 40°39' W 074°06'4 8.6
2018-Jun-19 03:30N 40°39' W 074°11'0 0.0
2018-Jun-19 00:59N 40°39' W 074°11'3 6.4
2018-Jun-19 00:30N 40°39' W 074°07'3 6.6
2018-Jun-19 00:00N 40°40' W 074°03'510.5
2018-Jun-18 23:30N 40°45' W 074°01'3 5.3
2018-Jun-18 22:58N 40°47' W 073°60'0 0.0
2018-Jun-18 22:30N 40°47' W 073°60'0 0.2
2018-Jun-18 22:00N 40°47' W 073°59'0 0.2
2018-Jun-18 21:30N 40°47' W 073°59'0 0.1
2018-Jun-18 20:59N 40°47' W 073°59'0 0.1
2018-Jun-18 20:30N 40°47' W 073°59'0 0.1
2018-Jun-18 20:00N 40°47' W 073°59'0 0.0
2018-Jun-18 19:04N 40°47' W 073°59'0 0.0
2018-Jun-18 16:57N 40°47' W 073°59'0 0.0
2018-Jun-18 16:16N 40°47' W 073°59'0 0.0
2018-Jun-18 15:58N 40°47' W 073°59'0 0.0
2018-Jun-18 15:30N 40°47' W 073°59'0 0.0
2018-Jun-18 15:00N 40°47' W 073°59'0 0.3
2018-Jun-18 14:30N 40°47' W 073°60'0 0.1
2018-Jun-18 13:59N 40°47' W 073°60'0 0.0
2018-Jun-18 13:27N 40°47' W 073°60'0 0.0
2018-Jun-18 13:00N 40°47' W 073°60'0 0.0
2018-Jun-18 12:30N 40°47' W 073°60'0 0.0
2018-Jun-18 12:00N 40°47' W 073°60'0 0.0
2018-Jun-18 11:30N 40°47' W 073°60'0 0.0
2018-Jun-18 11:00N 40°47' W 073°60'0 0.0
2018-Jun-18 10:26N 40°47' W 073°60'0 0.0
2018-Jun-18 10:00N 40°47' W 073°60'0 0.0
2018-Jun-18 09:30N 40°47' W 073°60'0 0.0
2018-Jun-18 08:59N 40°47' W 073°59'0 0.1
2018-Jun-18 08:29N 40°47' W 073°60'0 0.4
2018-Jun-18 08:00N 40°47' W 073°59'0 0.1
2018-Jun-18 07:29N 40°47' W 073°59'0 0.0
2018-Jun-18 07:00N 40°47' W 073°59'0 0.0
2018-Jun-18 06:18N 40°47' W 073°59'0 0.0
2018-Jun-18 06:00N 40°47' W 073°59'0 0.0
2018-Jun-18 05:28N 40°47' W 073°59'0 0.0
2018-Jun-18 04:12N 40°47' W 073°59'0 0.0
2018-Jun-18 03:46N 40°47' W 073°59'0 0.0
2018-Jun-18 03:30N 40°47' W 073°59'0 0.0
2018-Jun-18 02:45N 40°47' W 073°59'0 0.0
2018-Jun-18 02:30N 40°47' W 073°59'0 0.0
2018-Jun-18 01:55N 40°47' W 073°59'0 0.2
2018-Jun-18 00:41N 40°47' W 073°60'0 0.0
2018-Jun-18 00:27N 40°47' W 073°60'0 0.0
2018-Jun-17 23:58N 40°47' W 073°60'0 0.0
2018-Jun-17 23:25N 40°47' W 073°60'0 0.0
2018-Jun-17 22:57N 40°47' W 073°60'0 0.0
2018-Jun-17 22:21N 40°47' W 073°60'0 0.0
2018-Jun-17 21:59N 40°47' W 073°60'0 0.0
2018-Jun-17 21:23N 40°47' W 073°60'0 0.0
2018-Jun-17 20:56N 40°47' W 073°60'0 0.0
2018-Jun-17 20:26N 40°47' W 073°59'0 0.2
2018-Jun-17 19:44N 40°47' W 073°59'0 0.1
2018-Jun-17 19:30N 40°47' W 073°59'0 0.0
2018-Jun-17 19:00N 40°47' W 073°59'0 0.0
2018-Jun-17 18:30N 40°47' W 073°59'0 0.0
2018-Jun-17 17:59N 40°47' W 073°59'0 0.0
2018-Jun-17 15:19N 40°47' W 073°59'0 0.1
2018-Jun-17 15:00N 40°47' W 073°59'0 0.1
2018-Jun-17 14:30N 40°47' W 073°59'0 0.2
2018-Jun-17 14:00N 40°47' W 073°60'0 0.1
2018-Jun-17 13:30N 40°47' W 073°60'0 0.0
2018-Jun-17 12:21N 40°47' W 073°60'0 0.0
2018-Jun-17 12:00N 40°47' W 073°60'0 0.0
2018-Jun-17 11:28N 40°47' W 073°60'0 0.0
2018-Jun-17 11:00N 40°47' W 073°60'0 0.0
2018-Jun-17 10:30N 40°47' W 073°60'0 0.0
2018-Jun-17 10:00N 40°47' W 073°60'0 0.0
2018-Jun-17 09:30N 40°47' W 073°60'0 0.0
2018-Jun-17 08:58N 40°47' W 073°60'0 0.0
2018-Jun-17 08:30N 40°47' W 073°60'0 0.0
2018-Jun-17 07:48N 40°47' W 073°60'0 0.2
2018-Jun-17 07:30N 40°47' W 073°60'0 0.2
2018-Jun-17 06:47N 40°47' W 073°59'0 0.1
2018-Jun-17 06:30N 40°47' W 073°59'0 0.0
2018-Jun-17 06:00N 40°47' W 073°59'0 0.0
2018-Jun-17 05:26N 40°47' W 073°59'0 0.0
2018-Jun-17 04:17N 40°47' W 073°59'0 0.0
2018-Jun-17 04:00N 40°47' W 073°59'0 0.0
2018-Jun-17 03:30N 40°47' W 073°59'0 0.0
2018-Jun-17 02:38N 40°47' W 073°59'0 0.0
2018-Jun-17 02:29N 40°47' W 073°59'0 0.0
2018-Jun-17 01:57N 40°47' W 073°59'0 0.0
2018-Jun-17 01:30N 40°47' W 073°59'0 0.1
2018-Jun-17 01:00N 40°47' W 073°59'0 0.3
2018-Jun-17 00:30N 40°47' W 073°60'0 0.0
2018-Jun-16 23:47N 40°47' W 073°60'0 0.0
2018-Jun-16 23:30N 40°47' W 073°60'0 0.0
2018-Jun-16 22:54N 40°47' W 073°60'0 0.0
2018-Jun-16 22:30N 40°47' W 073°60'0 0.0
2018-Jun-16 22:00N 40°47' W 073°60'0 0.0
2018-Jun-16 21:29N 40°47' W 073°60'0 0.0
2018-Jun-16 20:59N 40°47' W 073°60'0 0.0
2018-Jun-16 20:30N 40°47' W 073°60'0 0.0
2018-Jun-16 20:00N 40°47' W 073°60'0 0.1
2018-Jun-16 19:23N 40°47' W 073°59'0 0.0
2018-Jun-16 18:55N 40°47' W 073°59'0 0.2
2018-Jun-16 18:26N 40°47' W 073°59'0 0.2
2018-Jun-16 17:44N 40°47' W 073°59'0 0.1
2018-Jun-16 17:27N 40°47' W 073°59'0 0.0
2018-Jun-16 16:58N 40°47' W 073°59'0 0.0
2018-Jun-16 16:25N 40°47' W 073°59'0 0.0
2018-Jun-16 15:56N 40°47' W 073°59'2 4.9
2018-Jun-16 15:30N 40°46' W 074°01'3 6.7
2018-Jun-16 15:00N 40°42' W 073°60'3 6.2
2018-Jun-16 14:30N 40°45' W 073°58'55 6.9
2018-Jun-16 06:34N 41°05' W 072°50'1 8.2
2018-Jun-16 06:30N 41°06' W 072°49'4 8.5
2018-Jun-16 05:58N 41°07' W 072°43'4 8.5
2018-Jun-16 05:30N 41°07' W 072°38'5 9.2
2018-Jun-16 05:00N 41°08' W 072°32'510.0
2018-Jun-16 04:30N 41°09' W 072°26'610.8
2018-Jun-16 03:59N 41°11' W 072°19'610.7
2018-Jun-16 03:28N 41°13' W 072°12'93 7.2
2018-Jun-15 14:31N 42°13' W 070°36'0 8.6
2018-Jun-15 14:28N 42°13' W 070°36'5 8.3
2018-Jun-15 13:50N 42°17' W 070°41'3 7.8
2018-Jun-15 13:30N 42°18' W 070°45'4 8.0
2018-Jun-15 13:00N 42°20' W 070°49'4 7.1
2018-Jun-15 12:30N 42°19' W 070°54'1 2.6
2018-Jun-15 12:00N 42°18' W 070°55'3 5.8
2018-Jun-15 11:30N 42°15' W 070°57'1 2.3
2018-Jun-15 11:00N 42°15' W 070°58'0 0.0
2018-Jun-15 10:30N 42°15' W 070°58'0 0.0
2018-Jun-15 10:00N 42°15' W 070°58'0 0.0
2018-Jun-15 09:30N 42°15' W 070°58'0 0.0
2018-Jun-15 09:00N 42°15' W 070°58'0 0.0
2018-Jun-15 08:30N 42°15' W 070°58'0 0.0
2018-Jun-15 08:00N 42°15' W 070°58'0 0.0
2018-Jun-15 07:30N 42°15' W 070°58'0 0.0
2018-Jun-15 07:00N 42°15' W 070°58'0 0.0
2018-Jun-15 06:30N 42°15' W 070°58'0 0.0
2018-Jun-15 06:00N 42°15' W 070°58'0 0.0
2018-Jun-15 05:30N 42°15' W 070°58'0 0.0
2018-Jun-15 05:00N 42°15' W 070°58'0 0.0
2018-Jun-15 04:30N 42°15' W 070°58'0 0.0
2018-Jun-15 04:00N 42°15' W 070°58'0 0.0
2018-Jun-15 03:30N 42°15' W 070°58'0 0.0
2018-Jun-15 03:00N 42°15' W 070°58'0 0.0
2018-Jun-15 02:30N 42°15' W 070°58'0 0.0
2018-Jun-15 02:00N 42°15' W 070°58'0 0.0
2018-Jun-15 01:30N 42°15' W 070°58'0 0.0
2018-Jun-15 01:00N 42°15' W 070°58'0 0.0
2018-Jun-15 00:30N 42°15' W 070°58'0 0.0
2018-Jun-15 00:00N 42°15' W 070°58'0 0.0
2018-Jun-14 23:30N 42°15' W 070°58'0 0.0
2018-Jun-14 23:00N 42°15' W 070°58'0 0.0
2018-Jun-14 22:31N 42°15' W 070°58'0 0.0
2018-Jun-14 22:00N 42°15' W 070°58'0 0.0
2018-Jun-14 21:30N 42°15' W 070°58'0 0.0
2018-Jun-14 21:00N 42°15' W 070°58'0 0.0
2018-Jun-14 20:31N 42°15' W 070°58'0 0.1
2018-Jun-14 19:59N 42°15' W 070°58'0 0.8
2018-Jun-14 19:30N 42°15' W 070°58'2 4.9
2018-Jun-14 19:00N 42°17' W 070°56'3 5.8
2018-Jun-14 18:31N 42°19' W 070°54'4 7.8
2018-Jun-14 18:00N 42°19' W 070°48'4 8.2
2018-Jun-14 17:30N 42°17' W 070°43'4 8.1
2018-Jun-14 17:00N 42°14' W 070°40'4 8.0
2018-Jun-14 16:30N 42°11' W 070°37'89 5.8
2018-Jun-14 01:10N 41°14' W 072°08'1 5.5
2018-Jun-14 01:00N 41°13' W 072°09'9 6.2
2018-Jun-13 23:36N 41°11' W 072°20'1 6.9
2018-Jun-13 23:29N 41°10' W 072°21'3 7.2
2018-Jun-13 23:00N 41°10' W 072°26'4 7.1
2018-Jun-13 22:30N 41°10' W 072°31'4 7.7
2018-Jun-13 22:00N 41°10' W 072°36'3 5.5
2018-Jun-13 21:30N 41°10' W 072°39'  

Dump ship's entire track history